Bretagne — FNBR — position and weather

sailwx.info

Track history (hours):
 
Tides and Currents Weather Stations Pressure Air Temp Water Temp Dewpoint Dewpoint Depression Visibility Wind Speed Wind Dir Waves Ship Positions

Bretagne

Operator: Brittany Ferries

Last reported at 2019-Jun-16 23:30 UTC. Time now 2019-Jun-17 19:20 UTC.
Position N 49°59' W 001°48'.

Length 151 m; beam 27 m.

Type: Ship. MMSI: 227286000.

Date/timePositionNaut miles runAvg speedWind from/ knotsBaromVisibWave heightAir tempDewpointWater temp
2019-Jun-16 23:30N 49°59' W 001°48'816.9
2019-Jun-16 23:00N 50°06' W 001°40'816.3
2019-Jun-16 22:30N 50°13' W 001°33'815.8
2019-Jun-16 22:00N 50°19' W 001°26'815.2
2019-Jun-16 21:30N 50°26' W 001°19'714.6
2019-Jun-16 21:01N 50°31' W 001°13'713.7
2019-Jun-16 20:30N 50°37' W 001°06'611.8
2019-Jun-16 20:00N 50°42' W 001°03'612.8
2019-Jun-16 19:30N 50°48' W 001°07'1 1.7
2019-Jun-16 18:58N 50°49' W 001°06'0 0.0
2019-Jun-16 18:28N 50°49' W 001°06'0 0.0
2019-Jun-16 17:58N 50°49' W 001°06'0 0.0
2019-Jun-16 17:28N 50°49' W 001°06'1 2.4
2019-Jun-16 17:00N 50°48' W 001°07'612.9
2019-Jun-16 16:30N 50°43' W 001°00'815.1
2019-Jun-16 16:00N 50°36' W 001°03'918.8
2019-Jun-16 15:30N 50°29' W 001°13'918.4
2019-Jun-16 15:00N 50°22' W 001°22'918.2
2019-Jun-16 14:31N 50°14' W 001°29'917.4
2019-Jun-16 14:00N 50°06' W 001°37'816.9
2019-Jun-16 13:30N 49°59' W 001°44'816.5
2019-Jun-16 13:01N 49°53' W 001°52'816.4
2019-Jun-16 12:30N 49°46' W 001°59'713.9
2019-Jun-16 12:00N 49°39' W 002°03'816.6
2019-Jun-16 11:30N 49°32' W 002°09'918.1
2019-Jun-16 11:00N 49°24' W 002°15'918.4
2019-Jun-16 10:30N 49°15' W 002°21'1019.7
2019-Jun-16 10:00N 49°06' W 002°22'11 2.0
2019-Jun-16 04:15N 48°54' W 002°21'712.4
2019-Jun-16 03:40N 49°02' W 002°22'312.1
2019-Jun-16 03:26N 49°04' W 002°22'612.6
2019-Jun-16 03:00N 49°10' W 002°22'612.2
2019-Jun-16 02:30N 49°16' W 002°21'611.8
2019-Jun-16 02:00N 49°21' W 002°17'612.8
2019-Jun-16 01:30N 49°27' W 002°12'713.4
2019-Jun-16 01:00N 49°33' W 002°08'814.2
2019-Jun-16 00:27N 49°40' W 002°04'819.1
2019-Jun-16 00:00N 49°48' W 001°59'917.6
2019-Jun-15 23:31N 49°56' W 001°52'917.4
2019-Jun-15 23:00N 50°03' W 001°44'816.8
2019-Jun-15 22:30N 50°10' W 001°37'816.3
2019-Jun-15 22:01N 50°16' W 001°29'815.9
2019-Jun-15 21:29N 50°23' W 001°22'715.3
2019-Jun-15 21:00N 50°29' W 001°16'714.6
2019-Jun-15 20:30N 50°35' W 001°09'612.9
2019-Jun-15 20:00N 50°41' W 001°03'612.8
2019-Jun-15 19:30N 50°47' W 001°06'2 3.9
2019-Jun-15 18:59N 50°49' W 001°06'0 0.0
2019-Jun-15 18:29N 50°49' W 001°06'0 0.0
2019-Jun-15 17:59N 50°49' W 001°06'0 0.0
2019-Jun-15 17:29N 50°49' W 001°06'1 2.1
2019-Jun-15 17:00N 50°48' W 001°07'713.5
2019-Jun-15 16:30N 50°43' W 000°60'815.9
2019-Jun-15 16:00N 50°35' W 001°04'1019.9
2019-Jun-15 15:30N 50°28' W 001°14'919.0
2019-Jun-15 15:00N 50°20' W 001°23'918.6
2019-Jun-15 14:30N 50°13' W 001°32'917.8
2019-Jun-15 14:00N 50°06' W 001°41'917.6
2019-Jun-15 13:31N 49°59' W 001°48'917.3
2019-Jun-15 13:00N 49°51' W 001°54'916.0
2019-Jun-15 12:28N 49°43' W 002°00'714.8
2019-Jun-15 12:00N 49°37' W 002°05'816.8
2019-Jun-15 11:30N 49°30' W 002°11'917.6
2019-Jun-15 11:00N 49°22' W 002°17'917.4
2019-Jun-15 10:30N 49°13' W 002°21'2019.8
2019-Jun-15 09:31N 48°54' W 002°19'018.4
2019-Jun-15 09:30N 48°54' W 002°19'19 5.6
2019-Jun-15 06:03N 48°38' W 002°02'2011.4
2019-Jun-15 04:16N 48°55' W 002°21'611.6
2019-Jun-15 03:46N 49°00' W 002°22'411.7
2019-Jun-15 03:26N 49°04' W 002°22'612.1
2019-Jun-15 02:56N 49°10' W 002°22'511.9
2019-Jun-15 02:30N 49°15' W 002°21'611.3
2019-Jun-15 02:00N 49°21' W 002°18'611.9
2019-Jun-15 01:30N 49°26' W 002°13'612.5
2019-Jun-15 01:00N 49°31' W 002°10'713.5
2019-Jun-15 00:30N 49°38' W 002°06'916.6
2019-Jun-14 23:59N 49°46' W 002°00'918.4
2019-Jun-14 23:30N 49°53' W 001°53'917.5
2019-Jun-14 23:00N 50°00' W 001°46'917.0
2019-Jun-14 22:30N 50°08' W 001°39'2116.7
2019-Jun-14 21:15N 50°25' W 001°20'516.2
2019-Jun-14 20:57N 50°29' W 001°16'715.9
2019-Jun-14 20:30N 50°35' W 001°10'714.1
2019-Jun-14 20:00N 50°40' W 001°03'613.0
2019-Jun-14 19:31N 50°47' W 001°06'2 3.7
2019-Jun-14 18:58N 50°49' W 001°06'0 0.0
2019-Jun-14 18:28N 50°49' W 001°06'0 0.0
2019-Jun-14 17:58N 50°49' W 001°06'0 0.0
2019-Jun-14 17:29N 50°49' W 001°06'1 2.5
2019-Jun-14 17:00N 50°48' W 001°07'713.2
2019-Jun-14 16:30N 50°42' W 001°03'612.9
2019-Jun-14 16:00N 50°36' W 001°08'713.4
2019-Jun-14 15:30N 50°30' W 001°13'714.2
2019-Jun-14 15:00N 50°24' W 001°18'1218.2
2019-Jun-14 14:22N 50°15' W 001°29'719.0
2019-Jun-14 14:00N 50°09' W 001°36'918.4
2019-Jun-14 13:30N 50°02' W 001°44'918.2
2019-Jun-14 13:00N 49°54' W 001°53'917.4
2019-Jun-14 12:30N 49°47' W 002°00'816.1
2019-Jun-14 12:00N 49°40' W 002°05'817.0
2019-Jun-14 11:30N 49°32' W 002°10'917.4
2019-Jun-14 11:00N 49°24' W 002°16'917.4
2019-Jun-14 10:30N 49°16' W 002°21'1418.9
2019-Jun-14 09:46N 49°02' W 002°22'820.0
2019-Jun-14 09:22N 48°54' W 002°21'2 0.5
2019-Jun-14 03:58N 48°57' W 002°21'711.0
2019-Jun-14 03:19N 49°04' W 002°22'411.2
2019-Jun-14 03:00N 49°07' W 002°22'611.4
2019-Jun-14 02:30N 49°13' W 002°21'714.7
2019-Jun-14 02:01N 49°20' W 002°19'815.5
2019-Jun-14 01:31N 49°27' W 002°13'816.0
2019-Jun-14 01:00N 49°34' W 002°07'816.9
2019-Jun-14 00:30N 49°42' W 002°02'917.3
2019-Jun-13 23:58N 49°51' W 001°58'1117.6
2019-Jun-13 23:22N 49°59' W 001°49'3617.1
2019-Jun-13 21:16N 50°28' W 001°16'416.7
2019-Jun-13 21:01N 50°32' W 001°11'816.5
2019-Jun-13 20:30N 50°38' W 001°03'611.6
2019-Jun-13 20:00N 50°44' W 001°03'510.8
2019-Jun-13 19:31N 50°48' W 001°07'1 1.6
2019-Jun-13 19:00N 50°49' W 001°06'0 0.0
2019-Jun-13 18:30N 50°49' W 001°06'0 0.0
2019-Jun-13 18:00N 50°49' W 001°06'0 0.0
2019-Jun-13 17:30N 50°49' W 001°06'0 0.0
2019-Jun-13 17:00N 50°49' W 001°06'2 4.1
2019-Jun-13 16:31N 50°47' W 001°06'612.9
2019-Jun-13 16:00N 50°40' W 001°04'815.4
2019-Jun-13 15:31N 50°33' W 001°09'713.0
2019-Jun-13 15:00N 50°28' W 001°14'812.7
2019-Jun-13 14:22N 50°21' W 001°22'2715.5
2019-Jun-13 12:38N 49°60' W 001°47'1916.4
2019-Jun-13 11:28N 49°43' W 002°02'816.2
2019-Jun-13 10:59N 49°36' W 002°07'817.2
2019-Jun-13 10:31N 49°29' W 002°12'917.4
2019-Jun-13 10:01N 49°21' W 002°18'917.6
2019-Jun-13 09:30N 49°13' W 002°23'2019.0
2019-Jun-13 08:28N 48°53' W 002°20'11 2.0
2019-Jun-13 02:49N 49°05' W 002°22'515.7
2019-Jun-13 02:28N 49°10' W 002°22'714.9
2019-Jun-13 02:00N 49°17' W 002°21'714.2
2019-Jun-13 01:30N 49°23' W 002°17'815.0
2019-Jun-13 01:00N 49°30' W 002°12'815.6
2019-Jun-13 00:30N 49°38' W 002°09'816.9
2019-Jun-13 00:00N 49°45' W 002°03'816.9
2019-Jun-12 23:30N 49°52' W 001°56'917.5
2019-Jun-12 23:01N 49°59' W 001°47'917.7
2019-Jun-12 22:31N 50°06' W 001°39'917.6
2019-Jun-12 22:00N 50°13' W 001°31'917.2
2019-Jun-12 21:31N 50°21' W 001°24'917.4
2019-Jun-12 21:00N 50°28' W 001°17'917.9
2019-Jun-12 20:30N 50°35' W 001°08'815.3
2019-Jun-12 20:00N 50°42' W 001°03'611.9
2019-Jun-12 19:30N 50°47' W 001°07'1 2.6
2019-Jun-12 19:00N 50°49' W 001°06'0 0.0
2019-Jun-12 18:29N 50°49' W 001°06'0 0.0
2019-Jun-12 17:59N 50°49' W 001°06'0 0.0
2019-Jun-12 17:29N 50°49' W 001°06'0 0.0
2019-Jun-12 16:59N 50°49' W 001°06'0 0.0
2019-Jun-12 16:29N 50°49' W 001°06'0 0.0
2019-Jun-12 15:59N 50°49' W 001°06'0 0.0
2019-Jun-12 15:29N 50°49' W 001°06'0 0.0
2019-Jun-12 14:59N 50°49' W 001°06'0 0.0
2019-Jun-12 14:29N 50°49' W 001°06'0 0.0
2019-Jun-12 13:59N 50°49' W 001°06'0 0.0
2019-Jun-12 13:29N 50°49' W 001°06'0 0.0
2019-Jun-12 12:59N 50°49' W 001°06'0 0.0
2019-Jun-12 12:29N 50°49' W 001°06'0 0.0
2019-Jun-12 12:00N 50°49' W 001°06'0 0.0
2019-Jun-12 11:30N 50°49' W 001°06'0 0.0
2019-Jun-12 11:00N 50°49' W 001°06'0 0.0
2019-Jun-12 10:30N 50°49' W 001°06'0 0.0
2019-Jun-12 10:00N 50°49' W 001°06'0 0.0
2019-Jun-12 09:30N 50°49' W 001°06'0 0.0
2019-Jun-12 09:00N 50°49' W 001°06'0 0.0
2019-Jun-12 08:30N 50°49' W 001°06'0 0.0
2019-Jun-12 08:00N 50°49' W 001°06'0 0.0
2019-Jun-12 07:30N 50°49' W 001°06'0 0.0
2019-Jun-12 07:00N 50°49' W 001°06'0 0.4
2019-Jun-12 06:30N 50°49' W 001°06'4 8.2
2019-Jun-12 06:01N 50°45' W 001°05'714.3
2019-Jun-12 05:31N 50°38' W 001°07'612.7
2019-Jun-12 05:00N 50°32' W 001°13'612.5
2019-Jun-12 04:30N 50°27' W 001°18'712.5
2019-Jun-12 03:57N 50°21' W 001°23'612.5
2019-Jun-12 03:30N 50°16' W 001°28'612.8
2019-Jun-12 03:00N 50°11' W 001°33'1413.8
2019-Jun-12 02:01N 49°60' W 001°46'713.8
2019-Jun-12 01:30N 49°54' W 001°53'612.7
2019-Jun-12 01:00N 49°49' W 001°58'913.7
2019-Jun-12 00:21N 49°41' W 002°04'512.5
2019-Jun-11 23:57N 49°36' W 002°07'511.8
2019-Jun-11 23:30N 49°31' W 002°10'611.3
2019-Jun-11 23:00N 49°26' W 002°15'510.7
2019-Jun-11 22:30N 49°22' W 002°19'510.3
2019-Jun-11 22:00N 49°17' W 002°22'6 9.6
2019-Jun-11 21:25N 49°12' W 002°22'1810.5
2019-Jun-11 19:46N 48°54' W 002°21'14 0.9
2019-Jun-11 03:05N 49°09' W 002°22'116.7
2019-Jun-11 03:00N 49°10' W 002°21'816.5
2019-Jun-11 02:30N 49°18' W 002°20'815.9
2019-Jun-11 02:00N 49°25' W 002°15'815.7
2019-Jun-11 01:30N 49°32' W 002°10'815.0
2019-Jun-11 00:59N 49°40' W 002°05'613.0
2019-Jun-11 00:30N 49°45' W 002°00'714.4
2019-Jun-11 00:00N 49°51' W 001°54'816.3
2019-Jun-10 23:31N 49°58' W 001°47'917.3
2019-Jun-10 23:01N 50°05' W 001°41'917.7
2019-Jun-10 22:31N 50°13' W 001°33'917.9
2019-Jun-10 22:00N 50°20' W 001°25'1118.0
2019-Jun-10 21:23N 50°30' W 001°15'718.5
2019-Jun-10 21:00N 50°35' W 001°09'815.3
2019-Jun-10 20:30N 50°42' W 001°03'611.1
2019-Jun-10 20:00N 50°47' W 001°06'2 3.9
2019-Jun-10 19:30N 50°49' W 001°06'0 0.0
2019-Jun-10 18:59N 50°49' W 001°06'0 0.0
2019-Jun-10 18:29N 50°49' W 001°06'0 0.0
2019-Jun-10 17:59N 50°49' W 001°06'0 0.0
2019-Jun-10 17:29N 50°49' W 001°06'1 1.7
2019-Jun-10 17:00N 50°48' W 001°07'612.3
2019-Jun-10 16:31N 50°43' W 001°02'713.2
2019-Jun-10 16:00N 50°37' W 001°07'714.6
2019-Jun-10 15:30N 50°31' W 001°13'1213.2
2019-Jun-10 14:36N 50°21' W 001°24'113.2
2019-Jun-10 14:30N 50°20' W 001°25'816.1
2019-Jun-10 14:00N 50°13' W 001°32'917.9
2019-Jun-10 13:30N 50°06' W 001°40'917.7
2019-Jun-10 13:00N 49°58' W 001°46'918.3
2019-Jun-10 12:31N 49°50' W 001°53'1020.4
2019-Jun-10 12:00N 49°41' W 002°01'1020.6
2019-Jun-10 11:30N 49°31' W 001°59'1019.0
2019-Jun-10 11:00N 49°21' W 001°56'917.2
2019-Jun-10 10:28N 49°13' W 001°51'1517.9
2019-Jun-10 09:38N 48°58' W 001°55'19 2.6
2019-Jun-10 02:14N 49°07' W 002°21'418.6
2019-Jun-10 02:01N 49°11' W 002°21'918.1
2019-Jun-10 01:31N 49°20' W 002°19'917.5
2019-Jun-10 01:00N 49°28' W 002°13'917.3
2019-Jun-10 00:31N 49°36' W 002°08'915.4
2019-Jun-09 23:54N 49°44' W 002°01'615.5
2019-Jun-09 23:31N 49°50' W 001°56'917.6
2019-Jun-09 23:01N 49°57' W 001°49'918.5
2019-Jun-09 22:30N 50°05' W 001°41'1019.1
2019-Jun-09 22:00N 50°13' W 001°33'1019.5
2019-Jun-09 21:30N 50°21' W 001°25'1019.8
2019-Jun-09 21:00N 50°29' W 001°16'1020.1
2019-Jun-09 20:30N 50°37' W 001°07'612.8
2019-Jun-09 20:00N 50°43' W 001°03'611.5
2019-Jun-09 19:30N 50°49' W 001°06'0 0.6
2019-Jun-09 19:00N 50°49' W 001°06'0 0.0
2019-Jun-09 18:30N 50°49' W 001°06'0 0.0
2019-Jun-09 18:00N 50°49' W 001°06'0 0.6
2019-Jun-09 17:31N 50°49' W 001°06'4 8.4
2019-Jun-09 17:00N 50°45' W 001°05'612.9
2019-Jun-09 16:30N 50°38' W 001°06'613.0
2019-Jun-09 16:00N 50°33' W 001°11'611.9
2019-Jun-09 15:30N 50°28' W 001°17'815.1
2019-Jun-09 15:01N 50°22' W 001°24'816.7
2019-Jun-09 14:30N 50°15' W 001°31'917.1
2019-Jun-09 14:00N 50°08' W 001°39'917.5
2019-Jun-09 13:30N 50°01' W 001°47'917.6
2019-Jun-09 13:00N 49°53' W 001°53'1019.5
2019-Jun-09 12:30N 49°45' W 002°01'1121.2
2019-Jun-09 12:00N 49°34' W 001°59'1019.6
2019-Jun-09 11:30N 49°24' W 001°57'1119.0
2019-Jun-09 10:55N 49°14' W 001°51'818.6
2019-Jun-09 10:30N 49°06' W 001°52'1518.5
2019-Jun-09 09:42N 48°52' W 001°59'1415.7
2019-Jun-09 08:48N 48°38' W 002°02'0 0.0
2019-Jun-09 06:53N 48°38' W 002°02'0 0.2
2019-Jun-09 06:30N 48°38' W 002°02'3212.5
2019-Jun-09 03:57N 49°07' W 002°23'511.8
2019-Jun-09 03:30N 49°13' W 002°22'612.2
2019-Jun-09 03:00N 49°19' W 002°20'612.1
2019-Jun-09 02:31N 49°24' W 002°17'815.3
2019-Jun-09 02:00N 49°31' W 002°12'816.0
2019-Jun-09 01:30N 49°39' W 002°07'815.4
2019-Jun-09 01:00N 49°45' W 002°01'714.5
2019-Jun-09 00:31N 49°51' W 001°55'714.9
2019-Jun-09 00:00N 49°58' W 001°49'714.9
2019-Jun-08 23:30N 50°04' W 001°44'714.3
2019-Jun-08 23:01N 50°09' W 001°35'815.0
2019-Jun-08 22:30N 50°15' W 001°27'815.6
2019-Jun-08 22:00N 50°21' W 001°20'815.7
2019-Jun-08 21:30N 50°27' W 001°13'815.4
2019-Jun-08 21:00N 50°34' W 001°06'714.5
2019-Jun-08 20:31N 50°39' W 000°59'713.9
2019-Jun-08 20:01N 50°45' W 001°05'4 7.8
2019-Jun-08 19:30N 50°49' W 001°06'0 0.3
2019-Jun-08 18:56N 50°49' W 001°06'0 0.0
2019-Jun-08 18:30N 50°49' W 001°06'0 0.0
2019-Jun-08 18:00N 50°49' W 001°06'0 0.0
2019-Jun-08 17:30N 50°49' W 001°06'0 0.1
2019-Jun-08 17:01N 50°49' W 001°06'4 8.4
2019-Jun-08 16:30N 50°45' W 001°05'611.3
2019-Jun-08 16:00N 50°39' W 001°05'612.3
2019-Jun-08 15:30N 50°34' W 001°11'814.7
2019-Jun-08 14:59N 50°28' W 001°18'815.8
2019-Jun-08 14:30N 50°21' W 001°24'816.6
2019-Jun-08 14:00N 50°14' W 001°31'918.5
2019-Jun-08 13:31N 50°06' W 001°38'1019.0
2019-Jun-08 13:00N 49°58' W 001°46'1019.7
2019-Jun-08 12:30N 49°50' W 001°54'1020.5
2019-Jun-08 12:00N 49°41' W 002°01'1019.8
2019-Jun-08 11:30N 49°31' W 001°59'1019.2
2019-Jun-08 11:01N 49°21' W 001°56'1018.6
2019-Jun-08 10:29N 49°12' W 001°52'24 3.9
2019-Jun-08 04:16N 49°03' W 002°26'519.0
2019-Jun-08 04:00N 49°08' W 002°29'918.6
2019-Jun-08 03:30N 49°16' W 002°34'713.3
2019-Jun-08 03:00N 49°22' W 002°29'918.8
2019-Jun-08 02:30N 49°26' W 002°16'918.7
2019-Jun-08 02:00N 49°34' W 002°10'918.5
2019-Jun-08 01:30N 49°43' W 002°04'817.0
2019-Jun-08 01:00N 49°50' W 001°56'816.0
2019-Jun-08 00:30N 49°57' W 001°50'815.4
2019-Jun-08 00:00N 50°03' W 001°42'714.7
2019-Jun-07 23:31N 50°09' W 001°35'612.6
2019-Jun-07 23:00N 50°13' W 001°29'612.2
2019-Jun-07 22:30N 50°18' W 001°22'912.8
2019-Jun-07 21:49N 50°25' W 001°14'412.9
2019-Jun-07 21:30N 50°28' W 001°09'613.0
2019-Jun-07 21:00N 50°33' W 001°03'613.1
2019-Jun-07 20:30N 50°39' W 000°59'611.7
2019-Jun-07 20:01N 50°44' W 001°03'510.6
2019-Jun-07 19:31N 50°49' W 001°07'1 1.6
2019-Jun-07 19:00N 50°49' W 001°06'0 0.0
2019-Jun-07 18:30N 50°49' W 001°06'0 0.0
2019-Jun-07 18:00N 50°49' W 001°06'0 0.0
2019-Jun-07 17:30N 50°49' W 001°06'1 1.9
2019-Jun-07 17:00N 50°48' W 001°07'612.0
2019-Jun-07 16:30N 50°43' W 001°03'611.1
2019-Jun-07 16:01N 50°38' W 001°06'612.2
2019-Jun-07 15:30N 50°33' W 001°12'613.0
2019-Jun-07 15:00N 50°28' W 001°18'714.1
2019-Jun-07 14:31N 50°22' W 001°24'714.8
2019-Jun-07 14:01N 50°15' W 001°31'815.4
2019-Jun-07 13:30N 50°09' W 001°37'817.0
2019-Jun-07 13:00N 50°02' W 001°45'917.9
2019-Jun-07 12:30N 49°54' W 001°49'1019.7
2019-Jun-07 12:00N 49°46' W 001°58'1019.6
2019-Jun-07 11:30N 49°36' W 001°60'1019.7
2019-Jun-07 11:00N 49°26' W 001°58'1119.7
2019-Jun-07 10:28N 49°16' W 001°53'1019.3
2019-Jun-07 09:58N 49°06' W 001°52'22 4.0
2019-Jun-07 04:25N 48°56' W 002°21'913.1
2019-Jun-07 03:43N 49°05' W 002°22'313.1
2019-Jun-07 03:29N 49°08' W 002°22'713.7
2019-Jun-07 03:00N 49°15' W 002°22'713.6
2019-Jun-07 02:30N 49°21' W 002°18'917.4
2019-Jun-07 02:00N 49°29' W 002°12'918.1
2019-Jun-07 01:30N 49°37' W 002°06'918.1
2019-Jun-07 01:00N 49°45' W 002°00'815.8
2019-Jun-07 00:30N 49°51' W 001°52'815.2
2019-Jun-07 00:01N 49°58' W 001°46'714.7
2019-Jun-06 23:30N 50°04' W 001°40'714.4
2019-Jun-06 23:00N 50°10' W 001°35'714.0
2019-Jun-06 22:30N 50°16' W 001°28'  
Track history (hours):
 
Tides and Currents Weather Stations Pressure Air Temp Water Temp Dewpoint Dewpoint Depression Visibility Wind Speed Wind Dir Waves Ship Positions

Bretagne

Operator: Brittany Ferries

Last reported at 2019-Jun-16 23:30 UTC. Time now 2019-Jun-17 19:20 UTC.
Position N 49°59' W 001°48'.

Length 151 m; beam 27 m.

Type: Ship. MMSI: 227286000.

Date/timePositionNaut miles runAvg speedWind from/ knotsBaromVisibWave heightAir tempDewpointWater temp
2019-Jun-16 23:30N 49°59' W 001°48'816.9
2019-Jun-16 23:00N 50°06' W 001°40'816.3
2019-Jun-16 22:30N 50°13' W 001°33'815.8
2019-Jun-16 22:00N 50°19' W 001°26'815.2
2019-Jun-16 21:30N 50°26' W 001°19'714.6
2019-Jun-16 21:01N 50°31' W 001°13'713.7
2019-Jun-16 20:30N 50°37' W 001°06'611.8
2019-Jun-16 20:00N 50°42' W 001°03'612.8
2019-Jun-16 19:30N 50°48' W 001°07'1 1.7
2019-Jun-16 18:58N 50°49' W 001°06'0 0.0
2019-Jun-16 18:28N 50°49' W 001°06'0 0.0
2019-Jun-16 17:58N 50°49' W 001°06'0 0.0
2019-Jun-16 17:28N 50°49' W 001°06'1 2.4
2019-Jun-16 17:00N 50°48' W 001°07'612.9
2019-Jun-16 16:30N 50°43' W 001°00'815.1
2019-Jun-16 16:00N 50°36' W 001°03'918.8
2019-Jun-16 15:30N 50°29' W 001°13'918.4
2019-Jun-16 15:00N 50°22' W 001°22'918.2
2019-Jun-16 14:31N 50°14' W 001°29'917.4
2019-Jun-16 14:00N 50°06' W 001°37'816.9
2019-Jun-16 13:30N 49°59' W 001°44'816.5
2019-Jun-16 13:01N 49°53' W 001°52'816.4
2019-Jun-16 12:30N 49°46' W 001°59'713.9
2019-Jun-16 12:00N 49°39' W 002°03'816.6
2019-Jun-16 11:30N 49°32' W 002°09'918.1
2019-Jun-16 11:00N 49°24' W 002°15'918.4
2019-Jun-16 10:30N 49°15' W 002°21'1019.7
2019-Jun-16 10:00N 49°06' W 002°22'11 2.0
2019-Jun-16 04:15N 48°54' W 002°21'712.4
2019-Jun-16 03:40N 49°02' W 002°22'312.1
2019-Jun-16 03:26N 49°04' W 002°22'612.6
2019-Jun-16 03:00N 49°10' W 002°22'612.2
2019-Jun-16 02:30N 49°16' W 002°21'611.8
2019-Jun-16 02:00N 49°21' W 002°17'612.8
2019-Jun-16 01:30N 49°27' W 002°12'713.4
2019-Jun-16 01:00N 49°33' W 002°08'814.2
2019-Jun-16 00:27N 49°40' W 002°04'819.1
2019-Jun-16 00:00N 49°48' W 001°59'917.6
2019-Jun-15 23:31N 49°56' W 001°52'917.4
2019-Jun-15 23:00N 50°03' W 001°44'816.8
2019-Jun-15 22:30N 50°10' W 001°37'816.3
2019-Jun-15 22:01N 50°16' W 001°29'815.9
2019-Jun-15 21:29N 50°23' W 001°22'715.3
2019-Jun-15 21:00N 50°29' W 001°16'714.6
2019-Jun-15 20:30N 50°35' W 001°09'612.9
2019-Jun-15 20:00N 50°41' W 001°03'612.8
2019-Jun-15 19:30N 50°47' W 001°06'2 3.9
2019-Jun-15 18:59N 50°49' W 001°06'0 0.0
2019-Jun-15 18:29N 50°49' W 001°06'0 0.0
2019-Jun-15 17:59N 50°49' W 001°06'0 0.0
2019-Jun-15 17:29N 50°49' W 001°06'1 2.1
2019-Jun-15 17:00N 50°48' W 001°07'713.5
2019-Jun-15 16:30N 50°43' W 000°60'815.9
2019-Jun-15 16:00N 50°35' W 001°04'1019.9
2019-Jun-15 15:30N 50°28' W 001°14'919.0
2019-Jun-15 15:00N 50°20' W 001°23'918.6
2019-Jun-15 14:30N 50°13' W 001°32'917.8
2019-Jun-15 14:00N 50°06' W 001°41'917.6
2019-Jun-15 13:31N 49°59' W 001°48'917.3
2019-Jun-15 13:00N 49°51' W 001°54'916.0
2019-Jun-15 12:28N 49°43' W 002°00'714.8
2019-Jun-15 12:00N 49°37' W 002°05'816.8
2019-Jun-15 11:30N 49°30' W 002°11'917.6
2019-Jun-15 11:00N 49°22' W 002°17'917.4
2019-Jun-15 10:30N 49°13' W 002°21'2019.8
2019-Jun-15 09:31N 48°54' W 002°19'018.4
2019-Jun-15 09:30N 48°54' W 002°19'19 5.6
2019-Jun-15 06:03N 48°38' W 002°02'2011.4
2019-Jun-15 04:16N 48°55' W 002°21'611.6
2019-Jun-15 03:46N 49°00' W 002°22'411.7
2019-Jun-15 03:26N 49°04' W 002°22'612.1
2019-Jun-15 02:56N 49°10' W 002°22'511.9
2019-Jun-15 02:30N 49°15' W 002°21'611.3
2019-Jun-15 02:00N 49°21' W 002°18'611.9
2019-Jun-15 01:30N 49°26' W 002°13'612.5
2019-Jun-15 01:00N 49°31' W 002°10'713.5
2019-Jun-15 00:30N 49°38' W 002°06'916.6
2019-Jun-14 23:59N 49°46' W 002°00'918.4
2019-Jun-14 23:30N 49°53' W 001°53'917.5
2019-Jun-14 23:00N 50°00' W 001°46'917.0
2019-Jun-14 22:30N 50°08' W 001°39'2116.7
2019-Jun-14 21:15N 50°25' W 001°20'516.2
2019-Jun-14 20:57N 50°29' W 001°16'715.9
2019-Jun-14 20:30N 50°35' W 001°10'714.1
2019-Jun-14 20:00N 50°40' W 001°03'613.0
2019-Jun-14 19:31N 50°47' W 001°06'2 3.7
2019-Jun-14 18:58N 50°49' W 001°06'0 0.0
2019-Jun-14 18:28N 50°49' W 001°06'0 0.0
2019-Jun-14 17:58N 50°49' W 001°06'0 0.0
2019-Jun-14 17:29N 50°49' W 001°06'1 2.5
2019-Jun-14 17:00N 50°48' W 001°07'713.2
2019-Jun-14 16:30N 50°42' W 001°03'612.9
2019-Jun-14 16:00N 50°36' W 001°08'713.4
2019-Jun-14 15:30N 50°30' W 001°13'714.2
2019-Jun-14 15:00N 50°24' W 001°18'1218.2
2019-Jun-14 14:22N 50°15' W 001°29'719.0
2019-Jun-14 14:00N 50°09' W 001°36'918.4
2019-Jun-14 13:30N 50°02' W 001°44'918.2
2019-Jun-14 13:00N 49°54' W 001°53'917.4
2019-Jun-14 12:30N 49°47' W 002°00'816.1
2019-Jun-14 12:00N 49°40' W 002°05'817.0
2019-Jun-14 11:30N 49°32' W 002°10'917.4
2019-Jun-14 11:00N 49°24' W 002°16'917.4
2019-Jun-14 10:30N 49°16' W 002°21'1418.9
2019-Jun-14 09:46N 49°02' W 002°22'820.0
2019-Jun-14 09:22N 48°54' W 002°21'2 0.5
2019-Jun-14 03:58N 48°57' W 002°21'711.0
2019-Jun-14 03:19N 49°04' W 002°22'411.2
2019-Jun-14 03:00N 49°07' W 002°22'611.4
2019-Jun-14 02:30N 49°13' W 002°21'714.7
2019-Jun-14 02:01N 49°20' W 002°19'815.5
2019-Jun-14 01:31N 49°27' W 002°13'816.0
2019-Jun-14 01:00N 49°34' W 002°07'816.9
2019-Jun-14 00:30N 49°42' W 002°02'917.3
2019-Jun-13 23:58N 49°51' W 001°58'1117.6
2019-Jun-13 23:22N 49°59' W 001°49'3617.1
2019-Jun-13 21:16N 50°28' W 001°16'416.7
2019-Jun-13 21:01N 50°32' W 001°11'816.5
2019-Jun-13 20:30N 50°38' W 001°03'611.6
2019-Jun-13 20:00N 50°44' W 001°03'510.8
2019-Jun-13 19:31N 50°48' W 001°07'1 1.6
2019-Jun-13 19:00N 50°49' W 001°06'0 0.0
2019-Jun-13 18:30N 50°49' W 001°06'0 0.0
2019-Jun-13 18:00N 50°49' W 001°06'0 0.0
2019-Jun-13 17:30N 50°49' W 001°06'0 0.0
2019-Jun-13 17:00N 50°49' W 001°06'2 4.1
2019-Jun-13 16:31N 50°47' W 001°06'612.9
2019-Jun-13 16:00N 50°40' W 001°04'815.4
2019-Jun-13 15:31N 50°33' W 001°09'713.0
2019-Jun-13 15:00N 50°28' W 001°14'812.7
2019-Jun-13 14:22N 50°21' W 001°22'2715.5
2019-Jun-13 12:38N 49°60' W 001°47'1916.4
2019-Jun-13 11:28N 49°43' W 002°02'816.2
2019-Jun-13 10:59N 49°36' W 002°07'817.2
2019-Jun-13 10:31N 49°29' W 002°12'917.4
2019-Jun-13 10:01N 49°21' W 002°18'917.6
2019-Jun-13 09:30N 49°13' W 002°23'2019.0
2019-Jun-13 08:28N 48°53' W 002°20'11 2.0
2019-Jun-13 02:49N 49°05' W 002°22'515.7
2019-Jun-13 02:28N 49°10' W 002°22'714.9
2019-Jun-13 02:00N 49°17' W 002°21'714.2
2019-Jun-13 01:30N 49°23' W 002°17'815.0
2019-Jun-13 01:00N 49°30' W 002°12'815.6
2019-Jun-13 00:30N 49°38' W 002°09'816.9
2019-Jun-13 00:00N 49°45' W 002°03'816.9
2019-Jun-12 23:30N 49°52' W 001°56'917.5
2019-Jun-12 23:01N 49°59' W 001°47'917.7
2019-Jun-12 22:31N 50°06' W 001°39'917.6
2019-Jun-12 22:00N 50°13' W 001°31'917.2
2019-Jun-12 21:31N 50°21' W 001°24'917.4
2019-Jun-12 21:00N 50°28' W 001°17'917.9
2019-Jun-12 20:30N 50°35' W 001°08'815.3
2019-Jun-12 20:00N 50°42' W 001°03'611.9
2019-Jun-12 19:30N 50°47' W 001°07'1 2.6
2019-Jun-12 19:00N 50°49' W 001°06'0 0.0
2019-Jun-12 18:29N 50°49' W 001°06'0 0.0
2019-Jun-12 17:59N 50°49' W 001°06'0 0.0
2019-Jun-12 17:29N 50°49' W 001°06'0 0.0
2019-Jun-12 16:59N 50°49' W 001°06'0 0.0
2019-Jun-12 16:29N 50°49' W 001°06'0 0.0
2019-Jun-12 15:59N 50°49' W 001°06'0 0.0
2019-Jun-12 15:29N 50°49' W 001°06'0 0.0
2019-Jun-12 14:59N 50°49' W 001°06'0 0.0
2019-Jun-12 14:29N 50°49' W 001°06'0 0.0
2019-Jun-12 13:59N 50°49' W 001°06'0 0.0
2019-Jun-12 13:29N 50°49' W 001°06'0 0.0
2019-Jun-12 12:59N 50°49' W 001°06'0 0.0
2019-Jun-12 12:29N 50°49' W 001°06'0 0.0
2019-Jun-12 12:00N 50°49' W 001°06'0 0.0
2019-Jun-12 11:30N 50°49' W 001°06'0 0.0
2019-Jun-12 11:00N 50°49' W 001°06'0 0.0
2019-Jun-12 10:30N 50°49' W 001°06'0 0.0
2019-Jun-12 10:00N 50°49' W 001°06'0 0.0
2019-Jun-12 09:30N 50°49' W 001°06'0 0.0
2019-Jun-12 09:00N 50°49' W 001°06'0 0.0
2019-Jun-12 08:30N 50°49' W 001°06'0 0.0
2019-Jun-12 08:00N 50°49' W 001°06'0 0.0
2019-Jun-12 07:30N 50°49' W 001°06'0 0.0
2019-Jun-12 07:00N 50°49' W 001°06'0 0.4
2019-Jun-12 06:30N 50°49' W 001°06'4 8.2
2019-Jun-12 06:01N 50°45' W 001°05'714.3
2019-Jun-12 05:31N 50°38' W 001°07'612.7
2019-Jun-12 05:00N 50°32' W 001°13'612.5
2019-Jun-12 04:30N 50°27' W 001°18'712.5
2019-Jun-12 03:57N 50°21' W 001°23'612.5
2019-Jun-12 03:30N 50°16' W 001°28'612.8
2019-Jun-12 03:00N 50°11' W 001°33'1413.8
2019-Jun-12 02:01N 49°60' W 001°46'713.8
2019-Jun-12 01:30N 49°54' W 001°53'612.7
2019-Jun-12 01:00N 49°49' W 001°58'913.7
2019-Jun-12 00:21N 49°41' W 002°04'512.5
2019-Jun-11 23:57N 49°36' W 002°07'511.8
2019-Jun-11 23:30N 49°31' W 002°10'611.3
2019-Jun-11 23:00N 49°26' W 002°15'510.7
2019-Jun-11 22:30N 49°22' W 002°19'510.3
2019-Jun-11 22:00N 49°17' W 002°22'6 9.6
2019-Jun-11 21:25N 49°12' W 002°22'1810.5
2019-Jun-11 19:46N 48°54' W 002°21'14 0.9
2019-Jun-11 03:05N 49°09' W 002°22'116.7
2019-Jun-11 03:00N 49°10' W 002°21'816.5
2019-Jun-11 02:30N 49°18' W 002°20'815.9
2019-Jun-11 02:00N 49°25' W 002°15'815.7
2019-Jun-11 01:30N 49°32' W 002°10'815.0
2019-Jun-11 00:59N 49°40' W 002°05'613.0
2019-Jun-11 00:30N 49°45' W 002°00'714.4
2019-Jun-11 00:00N 49°51' W 001°54'816.3
2019-Jun-10 23:31N 49°58' W 001°47'917.3
2019-Jun-10 23:01N 50°05' W 001°41'917.7
2019-Jun-10 22:31N 50°13' W 001°33'917.9
2019-Jun-10 22:00N 50°20' W 001°25'1118.0
2019-Jun-10 21:23N 50°30' W 001°15'718.5
2019-Jun-10 21:00N 50°35' W 001°09'815.3
2019-Jun-10 20:30N 50°42' W 001°03'611.1
2019-Jun-10 20:00N 50°47' W 001°06'2 3.9
2019-Jun-10 19:30N 50°49' W 001°06'0 0.0
2019-Jun-10 18:59N 50°49' W 001°06'0 0.0
2019-Jun-10 18:29N 50°49' W 001°06'0 0.0
2019-Jun-10 17:59N 50°49' W 001°06'0 0.0
2019-Jun-10 17:29N 50°49' W 001°06'1 1.7
2019-Jun-10 17:00N 50°48' W 001°07'612.3
2019-Jun-10 16:31N 50°43' W 001°02'713.2
2019-Jun-10 16:00N 50°37' W 001°07'714.6
2019-Jun-10 15:30N 50°31' W 001°13'1213.2
2019-Jun-10 14:36N 50°21' W 001°24'113.2
2019-Jun-10 14:30N 50°20' W 001°25'816.1
2019-Jun-10 14:00N 50°13' W 001°32'917.9
2019-Jun-10 13:30N 50°06' W 001°40'917.7
2019-Jun-10 13:00N 49°58' W 001°46'918.3
2019-Jun-10 12:31N 49°50' W 001°53'1020.4
2019-Jun-10 12:00N 49°41' W 002°01'1020.6
2019-Jun-10 11:30N 49°31' W 001°59'1019.0
2019-Jun-10 11:00N 49°21' W 001°56'917.2
2019-Jun-10 10:28N 49°13' W 001°51'1517.9
2019-Jun-10 09:38N 48°58' W 001°55'19 2.6
2019-Jun-10 02:14N 49°07' W 002°21'418.6
2019-Jun-10 02:01N 49°11' W 002°21'918.1
2019-Jun-10 01:31N 49°20' W 002°19'917.5
2019-Jun-10 01:00N 49°28' W 002°13'917.3
2019-Jun-10 00:31N 49°36' W 002°08'915.4
2019-Jun-09 23:54N 49°44' W 002°01'615.5
2019-Jun-09 23:31N 49°50' W 001°56'917.6
2019-Jun-09 23:01N 49°57' W 001°49'918.5
2019-Jun-09 22:30N 50°05' W 001°41'1019.1
2019-Jun-09 22:00N 50°13' W 001°33'1019.5
2019-Jun-09 21:30N 50°21' W 001°25'1019.8
2019-Jun-09 21:00N 50°29' W 001°16'1020.1
2019-Jun-09 20:30N 50°37' W 001°07'612.8
2019-Jun-09 20:00N 50°43' W 001°03'611.5
2019-Jun-09 19:30N 50°49' W 001°06'0 0.6
2019-Jun-09 19:00N 50°49' W 001°06'0 0.0
2019-Jun-09 18:30N 50°49' W 001°06'0 0.0
2019-Jun-09 18:00N 50°49' W 001°06'0 0.6
2019-Jun-09 17:31N 50°49' W 001°06'4 8.4
2019-Jun-09 17:00N 50°45' W 001°05'612.9
2019-Jun-09 16:30N 50°38' W 001°06'613.0
2019-Jun-09 16:00N 50°33' W 001°11'611.9
2019-Jun-09 15:30N 50°28' W 001°17'815.1
2019-Jun-09 15:01N 50°22' W 001°24'816.7
2019-Jun-09 14:30N 50°15' W 001°31'917.1
2019-Jun-09 14:00N 50°08' W 001°39'917.5
2019-Jun-09 13:30N 50°01' W 001°47'917.6
2019-Jun-09 13:00N 49°53' W 001°53'1019.5
2019-Jun-09 12:30N 49°45' W 002°01'1121.2
2019-Jun-09 12:00N 49°34' W 001°59'1019.6
2019-Jun-09 11:30N 49°24' W 001°57'1119.0
2019-Jun-09 10:55N 49°14' W 001°51'818.6
2019-Jun-09 10:30N 49°06' W 001°52'1518.5
2019-Jun-09 09:42N 48°52' W 001°59'1415.7
2019-Jun-09 08:48N 48°38' W 002°02'0 0.0
2019-Jun-09 06:53N 48°38' W 002°02'0 0.2
2019-Jun-09 06:30N 48°38' W 002°02'3212.5
2019-Jun-09 03:57N 49°07' W 002°23'511.8
2019-Jun-09 03:30N 49°13' W 002°22'612.2
2019-Jun-09 03:00N 49°19' W 002°20'612.1
2019-Jun-09 02:31N 49°24' W 002°17'815.3
2019-Jun-09 02:00N 49°31' W 002°12'816.0
2019-Jun-09 01:30N 49°39' W 002°07'815.4
2019-Jun-09 01:00N 49°45' W 002°01'714.5
2019-Jun-09 00:31N 49°51' W 001°55'714.9
2019-Jun-09 00:00N 49°58' W 001°49'714.9
2019-Jun-08 23:30N 50°04' W 001°44'714.3
2019-Jun-08 23:01N 50°09' W 001°35'815.0
2019-Jun-08 22:30N 50°15' W 001°27'815.6
2019-Jun-08 22:00N 50°21' W 001°20'815.7
2019-Jun-08 21:30N 50°27' W 001°13'815.4
2019-Jun-08 21:00N 50°34' W 001°06'714.5
2019-Jun-08 20:31N 50°39' W 000°59'713.9
2019-Jun-08 20:01N 50°45' W 001°05'4 7.8
2019-Jun-08 19:30N 50°49' W 001°06'0 0.3
2019-Jun-08 18:56N 50°49' W 001°06'0 0.0
2019-Jun-08 18:30N 50°49' W 001°06'0 0.0
2019-Jun-08 18:00N 50°49' W 001°06'0 0.0
2019-Jun-08 17:30N 50°49' W 001°06'0 0.1
2019-Jun-08 17:01N 50°49' W 001°06'4 8.4
2019-Jun-08 16:30N 50°45' W 001°05'611.3
2019-Jun-08 16:00N 50°39' W 001°05'612.3
2019-Jun-08 15:30N 50°34' W 001°11'814.7
2019-Jun-08 14:59N 50°28' W 001°18'815.8
2019-Jun-08 14:30N 50°21' W 001°24'816.6
2019-Jun-08 14:00N 50°14' W 001°31'918.5
2019-Jun-08 13:31N 50°06' W 001°38'1019.0
2019-Jun-08 13:00N 49°58' W 001°46'1019.7
2019-Jun-08 12:30N 49°50' W 001°54'1020.5
2019-Jun-08 12:00N 49°41' W 002°01'1019.8
2019-Jun-08 11:30N 49°31' W 001°59'1019.2
2019-Jun-08 11:01N 49°21' W 001°56'1018.6
2019-Jun-08 10:29N 49°12' W 001°52'24 3.9
2019-Jun-08 04:16N 49°03' W 002°26'519.0
2019-Jun-08 04:00N 49°08' W 002°29'918.6
2019-Jun-08 03:30N 49°16' W 002°34'713.3
2019-Jun-08 03:00N 49°22' W 002°29'918.8
2019-Jun-08 02:30N 49°26' W 002°16'918.7
2019-Jun-08 02:00N 49°34' W 002°10'918.5
2019-Jun-08 01:30N 49°43' W 002°04'817.0
2019-Jun-08 01:00N 49°50' W 001°56'816.0
2019-Jun-08 00:30N 49°57' W 001°50'815.4
2019-Jun-08 00:00N 50°03' W 001°42'714.7
2019-Jun-07 23:31N 50°09' W 001°35'612.6
2019-Jun-07 23:00N 50°13' W 001°29'612.2
2019-Jun-07 22:30N 50°18' W 001°22'912.8
2019-Jun-07 21:49N 50°25' W 001°14'412.9
2019-Jun-07 21:30N 50°28' W 001°09'613.0
2019-Jun-07 21:00N 50°33' W 001°03'613.1
2019-Jun-07 20:30N 50°39' W 000°59'611.7
2019-Jun-07 20:01N 50°44' W 001°03'510.6
2019-Jun-07 19:31N 50°49' W 001°07'1 1.6
2019-Jun-07 19:00N 50°49' W 001°06'0 0.0
2019-Jun-07 18:30N 50°49' W 001°06'0 0.0
2019-Jun-07 18:00N 50°49' W 001°06'0 0.0
2019-Jun-07 17:30N 50°49' W 001°06'1 1.9
2019-Jun-07 17:00N 50°48' W 001°07'612.0
2019-Jun-07 16:30N 50°43' W 001°03'611.1
2019-Jun-07 16:01N 50°38' W 001°06'612.2
2019-Jun-07 15:30N 50°33' W 001°12'613.0
2019-Jun-07 15:00N 50°28' W 001°18'714.1
2019-Jun-07 14:31N 50°22' W 001°24'714.8
2019-Jun-07 14:01N 50°15' W 001°31'815.4
2019-Jun-07 13:30N 50°09' W 001°37'817.0
2019-Jun-07 13:00N 50°02' W 001°45'917.9
2019-Jun-07 12:30N 49°54' W 001°49'1019.7
2019-Jun-07 12:00N 49°46' W 001°58'1019.6
2019-Jun-07 11:30N 49°36' W 001°60'1019.7
2019-Jun-07 11:00N 49°26' W 001°58'1119.7
2019-Jun-07 10:28N 49°16' W 001°53'1019.3
2019-Jun-07 09:58N 49°06' W 001°52'22 4.0
2019-Jun-07 04:25N 48°56' W 002°21'913.1
2019-Jun-07 03:43N 49°05' W 002°22'313.1
2019-Jun-07 03:29N 49°08' W 002°22'713.7
2019-Jun-07 03:00N 49°15' W 002°22'713.6
2019-Jun-07 02:30N 49°21' W 002°18'917.4
2019-Jun-07 02:00N 49°29' W 002°12'918.1
2019-Jun-07 01:30N 49°37' W 002°06'918.1
2019-Jun-07 01:00N 49°45' W 002°00'815.8
2019-Jun-07 00:30N 49°51' W 001°52'815.2
2019-Jun-07 00:01N 49°58' W 001°46'714.7
2019-Jun-06 23:30N 50°04' W 001°40'714.4
2019-Jun-06 23:00N 50°10' W 001°35'714.0
2019-Jun-06 22:30N 50°16' W 001°28'  

Dump ship's entire track history